Zwolle, Louisiana
Current Conditions -  °F | °C
As of 1:56 PM on Thursday 30 Oct 2014 (Local Time) from KAQV Reporting Station
Clear Clear  
Wind Chill: 23°   Ceiling: Unl
Heat Index: 23°   Visibility: 10mi
Dew Point:   Wind: 0mph
Humidity: 33%   Direction: NA
Pressure: 30.1"   Gusts: NA
Location:  31.63°N, 93.64°W
Report Text: KAQV 301856Z AUTO 00000KT 10SM CLR 23/06 A3010 RMK AO2 SLP190 T02280056
Loading
Personal Weather Stations






























Interactive Weather Map
Tropical Storm Tracking
New forecast layout! Learn more

10-Day Weather Forecast

Advertisements
Track Severe Weather on mobile